Time;durP1;ratioP1;P1;durP2;ratioP2;P2;SDS_P1;SDS_P2;PMS_P1;PMS_P2;Temp;Humidity;BMP_temperature;BMP_pressure;BME280_temperature;BME280_humidity;BME280_pressure;Samples;Min_cycle;Max_cycle;Signal;HPM_P1;HPM_P2
2022/03/13 00:00:59;;;;;;;14.20;6.83;;;8.70;99.90;;;;;;5082224;28;20479;-70
2022/03/13 00:03:27;;;;;;;9.60;7.13;;;8.70;99.90;;;;;;5085745;28;20541;-70
2022/03/13 00:05:54;;;;;;;14.90;7.43;;;8.60;99.90;;;;;;5082610;28;20838;-69
2022/03/13 00:08:27;;;;;;;11.23;5.47;;;8.60;99.90;;;;;;5085073;28;20922;-69
2022/03/13 00:10:58;;;;;;;15.03;8.97;;;8.70;99.90;;;;;;5083650;28;20518;-69
2022/03/13 00:13:30;;;;;;;18.53;9.57;;;8.60;99.90;;;;;;5087899;28;20515;-69
2022/03/13 00:15:58;;;;;;;15.17;8.17;;;8.50;99.90;;;;;;5083474;28;20574;-70
2022/03/13 00:18:25;;;;;;;11.77;8.20;;;8.60;99.90;;;;;;5082246;28;21012;-70
2022/03/13 00:20:52;;;;;;;13.70;8.80;;;8.70;99.90;;;;;;5086954;28;21061;-69
2022/03/13 00:23:19;;;;;;;20.40;8.73;;;8.50;99.90;;;;;;5082040;27;20466;-70
2022/03/13 00:25:45;;;;;;;16.67;7.87;;;8.40;99.90;;;;;;5082232;28;20446;-70
2022/03/13 00:28:13;;;;;;;9.27;6.27;;;8.40;99.90;;;;;;5085506;28;20474;-70
2022/03/13 00:30:40;;;;;;;11.40;7.43;;;8.50;99.90;;;;;;5078685;28;20436;-70
2022/03/13 00:33:08;;;;;;;12.23;8.50;;;8.50;99.90;;;;;;5086490;28;20440;-70
2022/03/13 00:35:35;;;;;;;13.60;7.70;;;8.40;99.90;;;;;;5093204;28;20456;-70
2022/03/13 00:38:02;;;;;;;12.10;7.83;;;8.30;99.90;;;;;;5085533;28;20476;-71
2022/03/13 00:40:29;;;;;;;15.10;6.20;;;8.30;99.90;;;;;;5084533;28;20436;-70
2022/03/13 00:42:56;;;;;;;13.53;7.33;;;8.30;99.90;;;;;;5083659;28;20468;-70
2022/03/13 00:45:24;;;;;;;22.90;8.47;;;8.30;99.90;;;;;;5083687;28;20431;-69
2022/03/13 00:47:50;;;;;;;11.20;6.73;;;8.10;99.90;;;;;;5088616;28;20440;-69
2022/03/13 00:50:17;;;;;;;10.27;7.50;;;8.20;99.90;;;;;;5083542;28;20527;-69
2022/03/13 00:52:44;;;;;;;11.73;7.93;;;8.30;99.90;;;;;;5084623;28;20469;-68
2022/03/13 00:55:11;;;;;;;13.70;6.80;;;8.10;99.90;;;;;;5086617;28;20464;-69
2022/03/13 00:57:38;;;;;;;12.77;8.13;;;7.90;99.90;;;;;;5085795;28;20465;-71
2022/03/13 01:00:06;;;;;;;16.57;7.80;;;7.90;99.90;;;;;;5084399;28;20528;-70
2022/03/13 01:02:34;;;;;;;13.70;6.67;;;7.80;99.90;;;;;;5085680;28;20964;-69
2022/03/13 01:05:01;;;;;;;11.40;7.77;;;7.80;99.90;;;;;;5089377;28;20587;-70
2022/03/13 01:07:28;;;;;;;11.13;6.90;;;7.80;99.90;;;;;;5087010;28;20494;-70
2022/03/13 01:09:54;;;;;;;12.00;7.00;;;7.80;99.90;;;;;;5089049;28;20432;-69
2022/03/13 01:12:21;;;;;;;11.37;7.40;;;7.70;99.90;;;;;;5083450;28;20431;-69
2022/03/13 01:14:48;;;;;;;10.47;6.83;;;7.60;99.90;;;;;;5082835;28;20436;-69
2022/03/13 01:17:20;;;;;;;12.10;7.60;;;7.70;99.90;;;;;;5080596;28;21080;-70
2022/03/13 01:19:48;;;;;;;15.63;7.10;;;7.60;99.90;;;;;;5087621;28;20576;-69
2022/03/13 01:22:15;;;;;;;11.20;6.40;;;7.60;99.90;;;;;;5085061;28;20449;-69
2022/03/13 01:24:44;;;;;;;7.40;5.47;;;7.80;99.90;;;;;;5084998;28;20927;-69
2022/03/13 01:27:12;;;;;;;9.40;5.57;;;7.60;99.90;;;;;;5085325;28;20424;-70
2022/03/13 01:29:39;;;;;;;10.87;6.60;;;7.50;99.90;;;;;;5083042;28;20481;-70
2022/03/13 01:32:09;;;;;;;14.50;6.40;;;7.40;99.90;;;;;;5080223;28;20428;-70
2022/03/13 01:34:48;;;;;;;8.70;6.40;;;7.40;99.90;;;;;;5086470;28;20428;-70
2022/03/13 01:37:31;;;;;;;8.10;6.10;;;7.50;99.90;;;;;;5084450;28;20563;-69
2022/03/13 01:40:00;;;;;;;13.63;8.20;;;7.60;99.90;;;;;;5084929;28;20428;-66
2022/03/13 01:42:27;;;;;;;15.47;6.90;;;7.60;99.90;;;;;;5084899;28;20469;-69
2022/03/13 01:44:54;;;;;;;14.03;6.47;;;7.60;99.90;;;;;;5086038;28;20465;-69
2022/03/13 01:47:21;;;;;;;8.43;5.67;;;7.60;99.90;;;;;;5085088;28;20468;-67
2022/03/13 01:49:49;;;;;;;10.37;5.37;;;7.60;99.90;;;;;;5084660;28;20451;-68
2022/03/13 01:52:16;;;;;;;10.77;7.27;;;7.50;99.90;;;;;;5087537;28;20489;-66
2022/03/13 01:54:45;;;;;;;12.77;6.30;;;7.40;99.90;;;;;;5084868;28;20421;-67
2022/03/13 01:57:18;;;;;;;16.03;7.87;;;7.40;99.90;;;;;;5088918;28;20452;-67
2022/03/13 01:59:44;;;;;;;14.53;11.33;;;7.40;99.90;;;;;;5082902;28;20799;-67
2022/03/13 02:02:12;;;;;;;13.80;7.40;;;7.30;99.90;;;;;;5084950;28;20564;-69
2022/03/13 02:04:38;;;;;;;12.60;7.00;;;7.10;99.90;;;;;;5087736;28;20456;-68
2022/03/13 02:07:06;;;;;;;16.23;7.23;;;7.00;99.90;;;;;;5087367;28;20552;-68
2022/03/13 02:09:34;;;;;;;5.97;5.30;;;7.00;99.90;;;;;;5090315;28;20462;-69
2022/03/13 02:12:00;;;;;;;8.27;6.17;;;7.00;99.90;;;;;;5085796;28;20432;-68
2022/03/13 02:14:27;;;;;;;8.90;7.70;;;7.00;99.90;;;;;;5091373;28;20527;-67
2022/03/13 02:16:54;;;;;;;17.10;6.80;;;7.00;99.90;;;;;;5084893;28;20877;-68
2022/03/13 02:19:22;;;;;;;12.83;7.60;;;7.00;99.90;;;;;;5082773;28;20487;-67
2022/03/13 02:21:52;;;;;;;11.00;6.60;;;7.00;99.90;;;;;;5087150;28;21481;-68
2022/03/13 02:24:24;;;;;;;10.70;6.77;;;7.00;99.90;;;;;;5088335;28;20432;-67
2022/03/13 02:27:00;;;;;;;21.23;7.67;;;7.00;99.90;;;;;;5090575;28;20549;-68
2022/03/13 02:29:27;;;;;;;10.60;6.40;;;7.10;99.90;;;;;;5088457;28;20839;-68
2022/03/13 02:31:54;;;;;;;12.37;5.70;;;7.20;99.90;;;;;;5090884;28;20848;-67
2022/03/13 02:34:21;;;;;;;14.43;7.87;;;7.00;99.90;;;;;;5085350;28;21275;-67
2022/03/13 02:37:01;;;;;;;12.60;6.90;;;6.90;99.90;;;;;;5087224;28;20458;-68
2022/03/13 02:39:35;;;;;;;7.50;5.70;;;6.70;99.90;;;;;;5086030;28;20553;-67
2022/03/13 02:42:02;;;;;;;11.50;5.93;;;6.70;99.90;;;;;;5085718;28;20443;-67
2022/03/13 02:44:28;;;;;;;12.73;8.10;;;6.70;99.90;;;;;;5084106;28;20424;-67
2022/03/13 02:46:59;;;;;;;13.77;7.23;;;6.60;99.90;;;;;;5089442;28;20449;-67
2022/03/13 02:49:27;;;;;;;10.57;6.93;;;6.70;99.90;;;;;;5087996;27;20488;-67
2022/03/13 02:51:57;;;;;;;16.70;8.20;;;6.80;99.90;;;;;;5089275;27;20461;-68
2022/03/13 02:54:24;;;;;;;12.50;7.43;;;6.90;99.90;;;;;;5083573;28;20435;-68
2022/03/13 02:56:52;;;;;;;11.10;6.23;;;6.80;99.90;;;;;;5086798;28;20447;-66
2022/03/13 02:59:20;;;;;;;10.67;6.23;;;7.00;99.90;;;;;;5084740;28;20620;-68
2022/03/13 03:01:47;;;;;;;11.20;6.40;;;6.90;99.90;;;;;;5082936;28;20460;-67
2022/03/13 03:04:15;;;;;;;11.10;5.57;;;6.80;99.90;;;;;;5090769;28;22021;-68
2022/03/13 03:06:52;;;;;;;11.33;6.07;;;6.80;99.90;;;;;;5083805;28;20492;-69
2022/03/13 03:09:19;;;;;;;12.43;6.30;;;6.70;99.90;;;;;;5085678;28;20443;-68
2022/03/13 03:11:47;;;;;;;8.87;5.83;;;6.70;99.90;;;;;;5084224;27;20436;-67
2022/03/13 03:14:16;;;;;;;12.00;5.50;;;6.80;99.90;;;;;;5085480;28;20476;-67
2022/03/13 03:16:43;;;;;;;9.93;5.93;;;6.60;99.90;;;;;;5090680;27;22702;-68
2022/03/13 03:19:10;;;;;;;9.23;6.10;;;6.60;99.90;;;;;;5089664;28;20482;-66
2022/03/13 03:21:38;;;;;;;11.63;5.70;;;6.60;99.90;;;;;;5084327;28;20462;-66
2022/03/13 03:24:12;;;;;;;8.70;5.30;;;6.60;99.90;;;;;;5083105;28;20427;-67
2022/03/13 03:26:39;;;;;;;11.90;7.90;;;6.30;99.90;;;;;;5082663;28;20456;-67
2022/03/13 03:29:06;;;;;;;10.33;6.30;;;6.20;99.90;;;;;;5086194;28;20526;-68
2022/03/13 03:31:39;;;;;;;9.40;6.63;;;6.10;99.90;;;;;;5086737;28;20881;-68
2022/03/13 03:34:09;;;;;;;11.07;7.57;;;5.90;99.90;;;;;;5089490;28;20420;-68
2022/03/13 03:36:40;;;;;;;13.90;6.47;;;6.00;99.90;;;;;;5093940;28;20575;-69
2022/03/13 03:39:07;;;;;;;12.03;5.90;;;6.10;99.90;;;;;;5085833;28;20829;-68
2022/03/13 03:41:34;;;;;;;9.57;6.60;;;6.10;99.90;;;;;;5085769;28;20458;-68
2022/03/13 03:44:01;;;;;;;10.43;5.97;;;6.10;99.90;;;;;;5086758;28;20469;-67
2022/03/13 03:46:27;;;;;;;9.50;5.60;;;6.20;99.90;;;;;;5092715;28;20435;-67
2022/03/13 03:48:55;;;;;;;10.77;8.60;;;6.10;99.90;;;;;;5087859;27;20522;-68
2022/03/13 03:51:22;;;;;;;10.40;6.03;;;6.10;99.90;;;;;;5081610;28;21284;-69
2022/03/13 03:53:48;;;;;;;13.20;5.70;;;6.00;99.90;;;;;;5087265;28;20424;-69
2022/03/13 03:56:15;;;;;;;9.63;6.60;;;5.90;99.90;;;;;;5086032;28;20537;-68
2022/03/13 03:58:42;;;;;;;12.17;5.20;;;6.00;99.90;;;;;;5086311;28;20956;-69
2022/03/13 04:01:08;;;;;;;7.50;5.20;;;5.90;99.90;;;;;;5091254;28;21258;-69
2022/03/13 04:03:35;;;;;;;13.13;6.73;;;5.80;99.90;;;;;;5088803;28;20453;-68
2022/03/13 04:06:03;;;;;;;8.53;5.63;;;5.90;99.90;;;;;;5084768;28;20450;-67
2022/03/13 04:08:30;;;;;;;13.13;6.23;;;6.00;99.90;;;;;;5087368;28;20549;-69
2022/03/13 04:10:57;;;;;;;9.00;4.93;;;6.10;99.90;;;;;;5089384;28;20508;-69
2022/03/13 04:13:23;;;;;;;8.80;5.70;;;6.10;99.90;;;;;;5090576;28;20461;-68
2022/03/13 04:15:50;;;;;;;18.50;6.30;;;6.00;99.90;;;;;;5088287;28;20888;-67
2022/03/13 04:18:17;;;;;;;12.70;6.87;;;6.10;99.90;;;;;;5086486;28;21045;-67
2022/03/13 04:20:44;;;;;;;7.50;5.27;;;6.00;99.90;;;;;;5084692;28;20868;-69
2022/03/13 04:23:12;;;;;;;11.03;5.10;;;5.90;99.90;;;;;;5086001;28;20435;-69
2022/03/13 04:25:38;;;;;;;12.50;6.73;;;6.00;99.90;;;;;;5084820;28;20440;-68
2022/03/13 04:28:10;;;;;;;6.87;4.70;;;5.90;99.90;;;;;;5088064;28;20472;-67
2022/03/13 04:30:40;;;;;;;12.00;5.30;;;6.00;99.90;;;;;;5083734;27;20457;-67
2022/03/13 04:33:07;;;;;;;15.73;4.80;;;5.90;99.90;;;;;;5084182;27;20575;-68
2022/03/13 04:35:34;;;;;;;5.83;4.47;;;5.90;99.90;;;;;;5076881;28;20881;-68
2022/03/13 04:38:02;;;;;;;9.63;5.30;;;6.00;99.90;;;;;;5081466;28;20513;-69
2022/03/13 04:40:30;;;;;;;7.87;4.70;;;5.90;99.90;;;;;;5085256;28;20525;-68
2022/03/13 04:42:56;;;;;;;9.83;6.37;;;5.90;99.90;;;;;;5087183;28;20497;-68
2022/03/13 04:45:25;;;;;;;10.00;5.77;;;5.90;99.90;;;;;;5083452;28;20518;-68
2022/03/13 04:47:52;;;;;;;8.30;5.60;;;5.80;99.90;;;;;;5084102;28;20576;-67
2022/03/13 04:50:19;;;;;;;10.63;4.30;;;5.70;99.90;;;;;;5085700;28;21619;-66
2022/03/13 04:52:46;;;;;;;5.67;4.33;;;5.60;99.90;;;;;;5083460;28;20454;-67
2022/03/13 04:55:13;;;;;;;14.67;6.13;;;5.70;99.90;;;;;;5087425;28;20493;-67
2022/03/13 04:57:41;;;;;;;12.17;5.20;;;5.90;99.90;;;;;;5080422;28;20481;-67
2022/03/13 05:00:08;;;;;;;8.80;4.03;;;5.90;99.90;;;;;;5083250;28;20460;-66
2022/03/13 05:02:35;;;;;;;9.60;4.67;;;5.90;99.90;;;;;;5081547;28;20449;-67
2022/03/13 05:05:02;;;;;;;10.47;5.53;;;5.90;99.90;;;;;;5084303;28;20456;-68
2022/03/13 05:07:29;;;;;;;7.80;4.27;;;5.80;99.90;;;;;;5086626;28;20456;-67
2022/03/13 05:09:56;;;;;;;10.53;6.50;;;5.80;99.90;;;;;;5083068;28;21022;-66
2022/03/13 05:12:29;;;;;;;6.17;3.40;;;5.70;99.90;;;;;;5089833;28;20895;-67
2022/03/13 05:14:57;;;;;;;5.50;4.57;;;5.50;99.90;;;;;;5087751;28;20815;-68
2022/03/13 05:17:24;;;;;;;6.53;4.70;;;5.30;99.90;;;;;;5080344;28;20455;-66
2022/03/13 05:19:51;;;;;;;10.33;4.53;;;5.30;99.90;;;;;;5081914;28;20452;-66
2022/03/13 05:22:17;;;;;;;5.57;4.07;;;5.20;99.90;;;;;;5085549;28;20966;-68
2022/03/13 05:24:44;;;;;;;8.43;4.43;;;5.30;99.90;;;;;;5086849;28;20457;-69
2022/03/13 05:27:11;;;;;;;7.30;4.57;;;5.20;99.90;;;;;;5093848;28;20491;-68
2022/03/13 05:29:37;;;;;;;8.10;5.37;;;5.50;99.90;;;;;;5080417;28;20465;-67
2022/03/13 05:32:06;;;;;;;10.43;5.10;;;5.60;99.90;;;;;;5084599;28;20457;-67
2022/03/13 05:34:33;;;;;;;7.37;4.53;;;5.60;99.90;;;;;;5085974;28;20484;-67
2022/03/13 05:37:00;;;;;;;12.13;6.30;;;5.50;99.90;;;;;;5087438;28;20529;-67
2022/03/13 05:39:26;;;;;;;12.13;6.23;;;5.50;99.90;;;;;;5081876;28;20907;-67
2022/03/13 05:41:53;;;;;;;14.13;5.53;;;5.50;99.90;;;;;;5085912;28;20465;-67
2022/03/13 05:44:20;;;;;;;7.80;4.90;;;5.60;99.90;;;;;;5081919;28;20440;-66
2022/03/13 05:46:48;;;;;;;15.50;5.43;;;5.60;99.90;;;;;;5084959;28;20451;-67
2022/03/13 05:49:16;;;;;;;9.90;5.00;;;5.50;99.90;;;;;;5089348;28;20478;-68
2022/03/13 05:51:43;;;;;;;5.97;3.80;;;5.50;99.90;;;;;;5090422;28;20462;-67
2022/03/13 05:54:10;;;;;;;10.13;4.87;;;5.50;99.90;;;;;;5084758;28;20553;-66
2022/03/13 05:56:37;;;;;;;10.30;5.47;;;5.60;99.90;;;;;;5088731;28;20451;-68
2022/03/13 05:59:03;;;;;;;11.27;5.67;;;5.70;99.90;;;;;;5083524;28;20476;-68
2022/03/13 06:01:30;;;;;;;6.17;4.90;;;5.80;99.90;;;;;;5086148;28;20428;-68
2022/03/13 06:03:57;;;;;;;12.53;4.03;;;5.70;99.90;;;;;;5084725;28;20457;-67
2022/03/13 06:06:25;;;;;;;6.47;5.23;;;5.60;99.90;;;;;;5089410;28;21090;-66
2022/03/13 06:08:52;;;;;;;5.30;3.77;;;5.50;99.90;;;;;;5089780;28;20984;-67
2022/03/13 06:11:19;;;;;;;6.70;4.80;;;5.60;99.90;;;;;;5084543;28;20507;-67
2022/03/13 06:13:45;;;;;;;10.93;5.57;;;5.60;99.90;;;;;;5087685;28;20556;-67
2022/03/13 06:16:12;;;;;;;12.07;6.10;;;5.80;99.90;;;;;;5083123;28;20498;-69
2022/03/13 06:18:39;;;;;;;6.90;4.37;;;6.00;99.90;;;;;;5088443;28;20621;-68
2022/03/13 06:21:06;;;;;;;7.57;4.03;;;6.10;99.90;;;;;;5085339;28;20443;-68
2022/03/13 06:23:34;;;;;;;6.60;6.00;;;6.30;99.90;;;;;;5083828;28;20552;-68
2022/03/13 06:26:03;;;;;;;7.60;4.33;;;6.20;99.90;;;;;;5085307;28;20456;-68
2022/03/13 06:28:31;;;;;;;6.87;5.07;;;6.30;99.90;;;;;;5085435;27;20971;-69
2022/03/13 06:30:58;;;;;;;11.00;4.93;;;6.50;99.90;;;;;;5089472;28;20457;-68
2022/03/13 06:33:26;;;;;;;8.77;4.77;;;6.70;99.90;;;;;;5091003;28;20446;-67
2022/03/13 06:35:52;;;;;;;11.90;4.50;;;6.60;99.90;;;;;;5088223;28;20539;-67
2022/03/13 06:38:19;;;;;;;7.27;4.40;;;6.70;99.90;;;;;;5082128;28;20472;-68
2022/03/13 06:40:47;;;;;;;15.53;5.20;;;6.90;99.90;;;;;;5086243;28;20428;-68
2022/03/13 06:43:14;;;;;;;10.97;5.27;;;7.00;99.90;;;;;;5084756;28;20444;-67
2022/03/13 06:45:41;;;;;;;8.33;4.90;;;7.20;99.90;;;;;;5086589;28;20965;-67
2022/03/13 06:48:08;;;;;;;7.70;4.20;;;7.70;99.90;;;;;;5086570;28;20469;-67
2022/03/13 06:50:34;;;;;;;6.33;5.50;;;7.90;99.90;;;;;;5087241;28;20436;-67
2022/03/13 06:53:01;;;;;;;8.27;5.23;;;7.70;99.90;;;;;;5088728;28;20444;-66
2022/03/13 06:55:28;;;;;;;5.80;4.27;;;7.70;99.90;;;;;;5084957;28;20492;-69
2022/03/13 06:57:56;;;;;;;6.07;3.20;;;7.70;99.90;;;;;;5087148;28;20463;-68
2022/03/13 07:00:22;;;;;;;4.43;3.53;;;7.30;99.90;;;;;;5083299;28;20456;-68
2022/03/13 07:02:50;;;;;;;6.90;4.20;;;7.10;99.90;;;;;;5087475;28;20469;-67
2022/03/13 07:05:19;;;;;;;4.83;3.70;;;7.30;99.90;;;;;;5091099;28;20439;-69
2022/03/13 07:07:45;;;;;;;7.20;4.37;;;7.50;99.90;;;;;;5091214;28;20431;-68
2022/03/13 07:10:12;;;;;;;7.37;5.37;;;7.80;99.90;;;;;;5087875;28;20826;-68
2022/03/13 07:12:40;;;;;;;6.27;4.10;;;8.20;99.90;;;;;;5090047;28;20431;-68
2022/03/13 07:15:13;;;;;;;9.07;5.00;;;8.30;99.90;;;;;;5090977;28;21178;-69
2022/03/13 07:17:41;;;;;;;9.03;4.90;;;8.40;99.90;;;;;;5094673;28;20548;-68
2022/03/13 07:20:09;;;;;;;7.43;4.60;;;8.70;99.90;;;;;;5093083;28;20432;-65
2022/03/13 07:22:35;;;;;;;8.20;4.57;;;9.10;99.90;;;;;;5087728;28;20431;-66
2022/03/13 07:25:03;;;;;;;15.27;6.20;;;9.40;97.20;;;;;;5086740;28;20454;-67
2022/03/13 07:27:30;;;;;;;10.33;5.37;;;9.50;95.10;;;;;;5084686;28;20449;-66
2022/03/13 07:29:56;;;;;;;7.03;4.20;;;9.40;91.90;;;;;;5093249;28;20886;-67
2022/03/13 07:32:24;;;;;;;7.50;4.33;;;9.50;91.40;;;;;;5094736;28;20490;-66
2022/03/13 07:34:51;;;;;;;9.67;5.77;;;9.70;91.70;;;;;;5093449;28;20423;-68
2022/03/13 07:37:18;;;;;;;13.47;5.97;;;10.00;91.50;;;;;;5086087;28;20439;-67
2022/03/13 07:39:47;;;;;;;6.50;4.40;;;10.40;86.70;;;;;;5091830;28;20529;-67
2022/03/13 07:42:14;;;;;;;12.60;4.50;;;10.30;83.80;;;;;;5091930;28;22265;-68
2022/03/13 07:44:41;;;;;;;6.10;4.80;;;10.30;85.00;;;;;;5092478;28;20428;-68
2022/03/13 07:47:08;;;;;;;8.60;5.60;;;10.30;83.30;;;;;;5089593;28;21305;-67
2022/03/13 07:49:36;;;;;;;10.20;4.63;;;10.50;82.00;;;;;;5093366;28;20496;-68
2022/03/13 07:52:03;;;;;;;7.80;4.57;;;11.00;80.90;;;;;;5094770;27;20502;-68
2022/03/13 07:54:30;;;;;;;6.63;5.10;;;11.10;76.10;;;;;;5094165;28;20435;-67
2022/03/13 07:56:57;;;;;;;7.40;4.50;;;10.90;74.20;;;;;;5096162;28;20961;-68
2022/03/13 07:59:24;;;;;;;6.90;4.90;;;10.70;76.40;;;;;;5095868;28;20831;-68
2022/03/13 08:01:50;;;;;;;9.37;6.50;;;10.80;75.20;;;;;;5091098;28;20550;-67
2022/03/13 08:04:17;;;;;;;7.63;4.83;;;10.70;74.30;;;;;;5089516;28;20473;-68
2022/03/13 08:06:45;;;;;;;9.77;5.17;;;10.70;73.50;;;;;;5090279;28;20797;-67
2022/03/13 08:09:12;;;;;;;7.33;3.63;;;10.80;72.90;;;;;;5088393;28;20477;-67
2022/03/13 08:11:39;;;;;;;15.43;6.73;;;11.20;70.40;;;;;;5082025;28;20457;-68
2022/03/13 08:14:07;;;;;;;5.60;3.30;;;11.50;72.60;;;;;;5086694;28;20454;-67
2022/03/13 08:16:34;;;;;;;9.50;5.50;;;12.10;68.20;;;;;;5085824;28;20457;-68
2022/03/13 08:19:02;;;;;;;5.47;4.97;;;12.50;70.40;;;;;;5080187;28;20482;-68
2022/03/13 08:21:29;;;;;;;7.17;4.50;;;13.10;66.40;;;;;;5085457;28;20449;-70
2022/03/13 08:23:57;;;;;;;8.83;4.87;;;13.70;63.90;;;;;;5081311;28;21015;-68
2022/03/13 08:26:24;;;;;;;6.93;6.27;;;14.30;61.80;;;;;;5089730;28;20462;-68
2022/03/13 08:28:51;;;;;;;6.80;4.80;;;14.80;58.90;;;;;;5091154;28;20551;-68
2022/03/13 08:31:17;;;;;;;5.63;3.63;;;14.90;57.40;;;;;;5093322;28;20464;-67
2022/03/13 08:33:45;;;;;;;8.97;7.07;;;14.90;56.40;;;;;;5091680;28;20461;-68
2022/03/13 08:36:12;;;;;;;13.87;5.73;;;14.70;57.30;;;;;;5088236;28;20477;-68
2022/03/13 08:38:38;;;;;;;13.10;6.17;;;14.60;56.30;;;;;;5090723;28;20477;-68
2022/03/13 08:41:06;;;;;;;10.17;6.23;;;14.10;55.70;;;;;;5093409;28;20780;-68
2022/03/13 08:43:33;;;;;;;9.00;5.87;;;14.50;56.90;;;;;;5092753;28;20774;-67
2022/03/13 08:46:00;;;;;;;7.00;5.53;;;14.50;55.70;;;;;;5089400;28;21150;-67
2022/03/13 08:48:30;;;;;;;8.07;5.10;;;14.30;55.30;;;;;;5097120;28;20460;-68
2022/03/13 08:50:57;;;;;;;15.80;7.00;;;14.10;54.90;;;;;;5093160;28;20469;-68
2022/03/13 08:53:24;;;;;;;10.60;6.37;;;14.00;55.50;;;;;;5091801;28;20432;-68
2022/03/13 08:55:50;;;;;;;7.43;5.27;;;14.30;55.70;;;;;;5090216;28;20432;-67
2022/03/13 08:58:18;;;;;;;12.27;5.43;;;14.90;54.30;;;;;;5090690;28;20481;-66
2022/03/13 09:00:45;;;;;;;10.97;7.30;;;16.30;52.90;;;;;;5094037;28;20464;-68
2022/03/13 09:03:15;;;;;;;8.60;6.10;;;17.80;51.20;;;;;;5094907;28;20453;-67
2022/03/13 09:05:42;;;;;;;9.80;6.00;;;18.80;48.60;;;;;;5082613;28;22516;-68
2022/03/13 09:08:09;;;;;;;11.93;7.00;;;19.30;47.70;;;;;;5087723;28;21000;-68
2022/03/13 09:10:36;;;;;;;8.97;6.90;;;20.10;49.20;;;;;;5081983;28;20485;-68
2022/03/13 09:13:03;;;;;;;8.80;6.60;;;20.60;45.00;;;;;;5077063;28;20613;-68
2022/03/13 09:15:31;;;;;;;12.10;7.30;;;21.10;44.10;;;;;;5079965;28;20465;-66
2022/03/13 09:18:02;;;;;;;8.67;7.47;;;20.90;43.30;;;;;;5076350;28;20575;-69
2022/03/13 09:20:29;;;;;;;12.50;6.30;;;20.80;43.00;;;;;;5081997;28;20510;-68
2022/03/13 09:22:56;;;;;;;6.77;5.57;;;20.80;42.80;;;;;;5082341;28;20535;-68
2022/03/13 09:25:23;;;;;;;13.03;8.07;;;20.30;43.30;;;;;;5082765;28;20934;-68
2022/03/13 09:27:52;;;;;;;12.47;7.20;;;20.10;44.10;;;;;;5081499;28;20886;-68
2022/03/13 09:30:19;;;;;;;13.13;9.53;;;21.10;43.90;;;;;;5084412;28;20487;-67
2022/03/13 09:32:46;;;;;;;8.03;7.00;;;22.20;43.00;;;;;;5081581;28;20485;-69
2022/03/13 09:35:13;;;;;;;10.50;7.83;;;22.30;42.80;;;;;;5078423;28;20491;-67
2022/03/13 09:37:41;;;;;;;12.63;6.10;;;21.40;43.20;;;;;;5082472;28;20462;-67
2022/03/13 09:40:10;;;;;;;9.60;6.77;;;21.50;42.60;;;;;;5082966;28;20818;-67
2022/03/13 09:42:40;;;;;;;11.70;8.00;;;21.80;42.30;;;;;;5080691;28;20819;-69
2022/03/13 09:45:07;;;;;;;10.10;7.03;;;22.30;42.80;;;;;;5082588;28;20476;-69
2022/03/13 09:47:35;;;;;;;13.07;6.80;;;22.80;41.00;;;;;;5088244;28;20462;-68
2022/03/13 09:50:03;;;;;;;8.13;7.23;;;22.30;40.10;;;;;;5079549;28;20461;-68
2022/03/13 09:52:31;;;;;;;10.60;7.60;;;22.90;40.70;;;;;;5080909;28;20457;-67
2022/03/13 09:54:57;;;;;;;15.00;8.30;;;23.50;39.50;;;;;;5083802;28;20819;-68
2022/03/13 09:57:24;;;;;;;9.43;6.93;;;23.70;39.90;;;;;;5079659;28;20464;-68
2022/03/13 09:59:51;;;;;;;10.03;7.53;;;23.70;39.20;;;;;;5087087;28;20493;-70
2022/03/13 10:02:18;;;;;;;10.60;7.57;;;23.90;39.20;;;;;;5085154;28;20533;-69
2022/03/13 10:04:45;;;;;;;12.57;7.63;;;23.70;39.50;;;;;;5085221;28;20448;-68
2022/03/13 10:07:15;;;;;;;9.07;7.57;;;23.80;39.10;;;;;;5093993;28;20513;-66
2022/03/13 10:09:44;;;;;;;11.70;8.87;;;23.60;39.40;;;;;;5089766;28;20469;-68
2022/03/13 10:12:13;;;;;;;12.10;8.40;;;24.30;38.60;;;;;;5096872;28;20966;-68
2022/03/13 10:14:59;;;;;;;10.70;9.13;;;25.00;38.20;;;;;;5088667;28;20452;-68
2022/03/13 10:17:26;;;;;;;12.07;7.07;;;25.20;39.20;;;;;;5089073;28;21153;-68
2022/03/13 10:19:53;;;;;;;13.23;9.20;;;25.80;37.40;;;;;;5084969;28;20481;-69
2022/03/13 10:22:29;;;;;;;11.10;7.67;;;26.50;39.00;;;;;;5097571;28;20456;-69
2022/03/13 10:24:56;;;;;;;11.50;8.13;;;26.30;39.10;;;;;;5093944;28;20445;-68
2022/03/13 10:27:23;;;;;;;10.70;8.10;;;26.10;38.40;;;;;;5092364;28;20460;-68
2022/03/13 10:29:50;;;;;;;12.03;7.87;;;25.80;39.20;;;;;;5093677;28;21062;-67
2022/03/13 10:32:17;;;;;;;10.67;8.30;;;25.20;39.80;;;;;;5098823;28;20467;-68
2022/03/13 10:34:56;;;;;;;12.83;8.90;;;24.80;40.80;;;;;;5080807;27;20970;-67
2022/03/13 10:37:43;;;;;;;11.37;8.47;;;25.10;40.50;;;;;;5078743;28;20469;-69
2022/03/13 10:40:21;;;;;;;12.03;7.87;;;26.00;39.50;;;;;;5088012;28;20470;-67
2022/03/13 10:42:49;;;;;;;8.00;6.93;;;26.50;39.40;;;;;;5084527;28;20460;-67
2022/03/13 10:45:37;;;;;;;11.20;8.17;;;26.70;39.40;;;;;;5081666;28;20485;-68
2022/03/13 10:48:22;;;;;;;8.57;6.27;;;26.70;38.90;;;;;;5086203;28;20483;-68
2022/03/13 10:50:51;;;;;;;11.10;8.30;;;26.30;38.50;;;;;;5080011;28;20457;-68
2022/03/13 10:53:21;;;;;;;13.53;8.23;;;26.10;39.40;;;;;;5084403;28;20540;-66
2022/03/13 10:56:01;;;;;;;13.87;8.57;;;27.30;39.20;;;;;;5088926;28;20469;-68
2022/03/13 10:58:30;;;;;;;10.10;7.47;;;27.40;36.80;;;;;;5086229;28;20567;-70
2022/03/13 11:01:04;;;;;;;12.03;7.70;;;25.80;38.00;;;;;;5082448;28;20452;-69
2022/03/13 11:03:31;;;;;;;12.80;8.00;;;25.10;39.10;;;;;;5087113;27;20464;-68
2022/03/13 11:05:57;;;;;;;9.20;5.63;;;24.60;40.40;;;;;;5085768;28;20457;-69
2022/03/13 11:08:26;;;;;;;10.70;6.83;;;24.60;41.30;;;;;;5090555;28;20492;-70
2022/03/13 11:10:53;;;;;;;7.13;6.43;;;25.00;41.40;;;;;;5086755;28;20458;-68
2022/03/13 11:13:21;;;;;;;9.83;6.20;;;25.60;40.70;;;;;;5081660;27;20632;-69
2022/03/13 11:15:48;;;;;;;11.93;8.40;;;26.40;39.60;;;;;;5080566;28;21120;-68
2022/03/13 11:18:17;;;;;;;7.10;4.57;;;26.90;39.10;;;;;;5086368;28;20482;-68
2022/03/13 11:20:44;;;;;;;12.00;8.27;;;26.30;39.30;;;;;;5085194;27;20585;-69
2022/03/13 11:23:11;;;;;;;10.63;6.90;;;26.50;40.10;;;;;;5081182;28;21331;-69
2022/03/13 11:25:40;;;;;;;10.50;7.93;;;26.70;39.30;;;;;;5085195;28;20767;-69
2022/03/13 11:28:07;;;;;;;9.53;7.80;;;27.50;39.20;;;;;;5086959;28;20484;-68
2022/03/13 11:30:36;;;;;;;8.80;5.87;;;28.60;39.30;;;;;;5084541;28;20456;-69
2022/03/13 11:33:03;;;;;;;8.70;7.43;;;28.50;38.90;;;;;;5087850;28;20449;-67
2022/03/13 11:35:31;;;;;;;9.00;6.80;;;27.70;38.70;;;;;;5087554;28;20450;-67
2022/03/13 11:38:19;;;;;;;8.10;6.63;;;26.90;38.70;;;;;;5081816;28;20547;-67
2022/03/13 11:40:47;;;;;;;12.17;10.23;;;27.00;40.00;;;;;;5083191;28;20506;-68
2022/03/13 11:43:16;;;;;;;9.10;6.40;;;26.90;39.80;;;;;;5090905;28;20456;-67
2022/03/13 11:45:48;;;;;;;10.10;7.50;;;26.20;40.40;;;;;;5084952;28;20486;-68
2022/03/13 11:48:42;;;;;;;9.30;6.63;;;26.10;40.60;;;;;;5081206;28;20488;-67
2022/03/13 11:51:09;;;;;;;8.40;6.00;;;26.00;40.20;;;;;;5089260;28;20557;-68
2022/03/13 11:53:45;;;;;;;7.23;5.07;;;27.10;39.70;;;;;;5090143;28;20464;-69
2022/03/13 11:56:25;;;;;;;10.70;7.93;;;26.40;40.00;;;;;;5085736;28;20549;-68
2022/03/13 11:58:54;;;;;;;10.60;6.80;;;26.70;40.10;;;;;;5087256;28;20472;-68
2022/03/13 12:01:32;;;;;;;9.00;6.83;;;27.50;39.60;;;;;;5083450;28;20541;-68
2022/03/13 12:04:27;;;;;;;10.30;6.33;;;27.00;40.10;;;;;;5077658;28;20983;-68
2022/03/13 12:06:56;;;;;;;7.40;6.27;;;26.40;41.30;;;;;;5077197;27;21006;-69
2022/03/13 12:09:41;;;;;;;9.10;6.97;;;27.20;39.70;;;;;;5085613;27;20557;-69
2022/03/13 12:12:12;;;;;;;6.77;6.07;;;28.40;39.00;;;;;;5078430;28;20456;-68
2022/03/13 12:14:54;;;;;;;6.23;5.13;;;28.20;38.50;;;;;;5081868;28;20476;-69
2022/03/13 12:17:25;;;;;;;6.70;4.67;;;27.60;39.50;;;;;;5084102;28;20468;-69
2022/03/13 12:19:52;;;;;;;9.90;5.73;;;28.40;39.10;;;;;;5081892;28;20574;-68
2022/03/13 12:22:21;;;;;;;6.50;5.30;;;27.90;38.40;;;;;;5078104;28;20466;-68
2022/03/13 12:24:49;;;;;;;6.43;5.40;;;27.90;38.10;;;;;;5078338;28;20474;-68
2022/03/13 12:27:19;;;;;;;6.17;4.27;;;28.50;38.50;;;;;;5086940;28;20552;-69
2022/03/13 12:29:50;;;;;;;5.43;3.97;;;28.60;38.70;;;;;;5083343;28;20477;-68
2022/03/13 12:32:17;;;;;;;5.73;5.10;;;28.90;38.80;;;;;;5082336;28;20536;-67
2022/03/13 12:34:44;;;;;;;6.83;5.13;;;28.70;37.60;;;;;;5079667;28;20515;-69
2022/03/13 12:37:11;;;;;;;7.30;6.27;;;28.50;37.30;;;;;;5077478;28;20530;-69
2022/03/13 12:39:49;;;;;;;6.40;4.43;;;27.70;37.50;;;;;;5073637;28;20477;-67
2022/03/13 12:42:21;;;;;;;7.07;5.63;;;27.10;37.70;;;;;;5079728;28;20459;-69
2022/03/13 12:44:59;;;;;;;7.47;5.50;;;27.40;38.30;;;;;;5079890;28;20462;-68
2022/03/13 12:47:28;;;;;;;7.17;4.90;;;28.40;37.40;;;;;;5084389;28;20461;-68
2022/03/13 12:49:58;;;;;;;6.50;5.93;;;28.60;37.50;;;;;;5080719;28;20565;-68
2022/03/13 12:52:24;;;;;;;5.43;3.60;;;28.50;37.30;;;;;;5086044;28;20518;-69
2022/03/13 12:54:58;;;;;;;5.13;3.90;;;29.40;36.90;;;;;;5080267;28;20927;-67